sensor_id;sensor_type;location;lat;lon;timestamp;pressure;altitude;pressure_sealevel;temperature;humidity
25869;BME280;13688;53.154;18.136;2022-10-16T00:04:56;100764.94;;;12.81;100.00
25869;BME280;13688;53.154;18.136;2022-10-16T00:10:18;100769.55;;;12.70;100.00
25869;BME280;13688;53.154;18.136;2022-10-16T00:15:42;100782.31;;;12.47;100.00
25869;BME280;13688;53.154;18.136;2022-10-16T00:21:10;100773.08;;;12.28;100.00
25869;BME280;13688;53.154;18.136;2022-10-16T00:26:36;100790.56;;;12.02;100.00
25869;BME280;13688;53.154;18.136;2022-10-16T00:31:58;100777.84;;;11.93;100.00
25869;BME280;13688;53.154;18.136;2022-10-16T00:37:20;100783.86;;;11.85;100.00
25869;BME280;13688;53.154;18.136;2022-10-16T00:42:43;100781.03;;;11.75;100.00
25869;BME280;13688;53.154;18.136;2022-10-16T00:48:06;100785.33;;;11.67;100.00
25869;BME280;13688;53.154;18.136;2022-10-16T00:53:30;100782.63;;;11.67;100.00
25869;BME280;13688;53.154;18.136;2022-10-16T00:58:53;100788.77;;;11.69;100.00
25869;BME280;13688;53.154;18.136;2022-10-16T01:04:15;100785.23;;;11.68;100.00
25869;BME280;13688;53.154;18.136;2022-10-16T01:09:57;100791.69;;;11.66;100.00
25869;BME280;13688;53.154;18.136;2022-10-16T01:15:25;100791.69;;;11.66;100.00
25869;BME280;13688;53.154;18.136;2022-10-16T01:21:20;100793.05;;;11.71;100.00
25869;BME280;13688;53.154;18.136;2022-10-16T01:32:52;100796.47;;;11.73;100.00
25869;BME280;13688;53.154;18.136;2022-10-16T01:38:41;100796.20;;;11.76;100.00
25869;BME280;13688;53.154;18.136;2022-10-16T01:44:11;100802.97;;;11.71;100.00
25869;BME280;13688;53.154;18.136;2022-10-16T01:49:38;100804.80;;;11.70;100.00
25869;BME280;13688;53.154;18.136;2022-10-16T01:55:03;100801.25;;;11.70;100.00
25869;BME280;13688;53.154;18.136;2022-10-16T02:00:28;100800.53;;;11.68;100.00
25869;BME280;13688;53.154;18.136;2022-10-16T02:05:55;100803.44;;;11.76;100.00
25869;BME280;13688;53.154;18.136;2022-10-16T02:11:18;100792.56;;;11.78;100.00
25869;BME280;13688;53.154;18.136;2022-10-16T02:16:44;100797.32;;;11.74;100.00
25869;BME280;13688;53.154;18.136;2022-10-16T02:22:09;100801.88;;;11.62;100.00
25869;BME280;13688;53.154;18.136;2022-10-16T02:33:47;100799.08;;;11.41;100.00
25869;BME280;13688;53.154;18.136;2022-10-16T02:39:13;100797.97;;;11.33;100.00
25869;BME280;13688;53.154;18.136;2022-10-16T02:44:36;100803.48;;;11.20;100.00
25869;BME280;13688;53.154;18.136;2022-10-16T02:49:58;100807.12;;;11.19;100.00
25869;BME280;13688;53.154;18.136;2022-10-16T02:55:20;100804.69;;;11.27;100.00
25869;BME280;13688;53.154;18.136;2022-10-16T03:00:43;100800.53;;;11.34;100.00
25869;BME280;13688;53.154;18.136;2022-10-16T03:06:06;100793.81;;;11.40;100.00
25869;BME280;13688;53.154;18.136;2022-10-16T03:11:28;100781.55;;;11.47;100.00
25869;BME280;13688;53.154;18.136;2022-10-16T03:16:50;100784.36;;;11.57;100.00
25869;BME280;13688;53.154;18.136;2022-10-16T03:22:13;100780.45;;;11.61;100.00
25869;BME280;13688;53.154;18.136;2022-10-16T03:27:36;100782.53;;;11.68;100.00
25869;BME280;13688;53.154;18.136;2022-10-16T03:32:58;100787.53;;;11.73;100.00
25869;BME280;13688;53.154;18.136;2022-10-16T03:38:21;100799.89;;;11.75;100.00
25869;BME280;13688;53.154;18.136;2022-10-16T03:43:43;100809.48;;;11.80;100.00
25869;BME280;13688;53.154;18.136;2022-10-16T03:49:05;100814.25;;;11.87;100.00
25869;BME280;13688;53.154;18.136;2022-10-16T03:54:27;100817.67;;;11.89;100.00
25869;BME280;13688;53.154;18.136;2022-10-16T03:59:50;100813.47;;;11.96;100.00
25869;BME280;13688;53.154;18.136;2022-10-16T04:05:12;100831.58;;;12.06;100.00
25869;BME280;13688;53.154;18.136;2022-10-16T04:10:34;100836.61;;;12.10;100.00
25869;BME280;13688;53.154;18.136;2022-10-16T04:15:58;100830.45;;;12.19;100.00
25869;BME280;13688;53.154;18.136;2022-10-16T04:21:20;100812.31;;;12.21;100.00
25869;BME280;13688;53.154;18.136;2022-10-16T04:26:43;100816.36;;;12.16;100.00
25869;BME280;13688;53.154;18.136;2022-10-16T04:32:05;100813.16;;;12.22;100.00
25869;BME280;13688;53.154;18.136;2022-10-16T04:37:30;100822.33;;;12.30;100.00
25869;BME280;13688;53.154;18.136;2022-10-16T04:42:53;100839.58;;;12.39;100.00
25869;BME280;13688;53.154;18.136;2022-10-16T04:48:15;100849.97;;;12.44;100.00
25869;BME280;13688;53.154;18.136;2022-10-16T04:53:38;100854.01;;;12.49;100.00
25869;BME280;13688;53.154;18.136;2022-10-16T04:59:00;100838.68;;;12.50;100.00
25869;BME280;13688;53.154;18.136;2022-10-16T05:04:22;100852.52;;;12.56;100.00
25869;BME280;13688;53.154;18.136;2022-10-16T05:09:45;100867.58;;;12.59;100.00
25869;BME280;13688;53.154;18.136;2022-10-16T05:15:07;100857.52;;;12.61;100.00
25869;BME280;13688;53.154;18.136;2022-10-16T05:20:30;100852.84;;;12.63;100.00
25869;BME280;13688;53.154;18.136;2022-10-16T05:25:59;100860.93;;;12.63;100.00
25869;BME280;13688;53.154;18.136;2022-10-16T05:31:22;100872.20;;;12.68;100.00
25869;BME280;13688;53.154;18.136;2022-10-16T05:36:44;100861.28;;;12.70;100.00
25869;BME280;13688;53.154;18.136;2022-10-16T05:42:06;100866.17;;;12.76;100.00
25869;BME280;13688;53.154;18.136;2022-10-16T05:47:28;100888.92;;;12.83;100.00
25869;BME280;13688;53.154;18.136;2022-10-16T05:52:51;100902.63;;;12.91;100.00
25869;BME280;13688;53.154;18.136;2022-10-16T05:58:14;100889.21;;;13.01;100.00
25869;BME280;13688;53.154;18.136;2022-10-16T06:03:37;100894.55;;;13.12;100.00
25869;BME280;13688;53.154;18.136;2022-10-16T06:09:00;100894.03;;;13.18;100.00
25869;BME280;13688;53.154;18.136;2022-10-16T06:14:23;100891.84;;;13.23;100.00
25869;BME280;13688;53.154;18.136;2022-10-16T06:19:46;100906.20;;;13.24;100.00
25869;BME280;13688;53.154;18.136;2022-10-16T06:25:08;100904.80;;;13.29;100.00
25869;BME280;13688;53.154;18.136;2022-10-16T06:30:30;100909.54;;;13.37;100.00
25869;BME280;13688;53.154;18.136;2022-10-16T06:36:11;100918.03;;;13.53;100.00
25869;BME280;13688;53.154;18.136;2022-10-16T06:41:34;100902.35;;;13.47;100.00
25869;BME280;13688;53.154;18.136;2022-10-16T06:46:57;100915.06;;;13.56;100.00
25869;BME280;13688;53.154;18.136;2022-10-16T06:52:19;100937.86;;;13.63;100.00
25869;BME280;13688;53.154;18.136;2022-10-16T06:57:43;100930.05;;;13.70;100.00
25869;BME280;13688;53.154;18.136;2022-10-16T07:03:05;100925.83;;;13.77;100.00
25869;BME280;13688;53.154;18.136;2022-10-16T07:08:30;100925.73;;;13.88;100.00
25869;BME280;13688;53.154;18.136;2022-10-16T07:13:53;100931.46;;;13.95;100.00
25869;BME280;13688;53.154;18.136;2022-10-16T07:19:17;100941.88;;;13.99;100.00
25869;BME280;13688;53.154;18.136;2022-10-16T07:24:41;100951.85;;;14.09;100.00
25869;BME280;13688;53.154;18.136;2022-10-16T07:30:04;100949.65;;;14.23;100.00
25869;BME280;13688;53.154;18.136;2022-10-16T07:35:27;100963.91;;;14.35;99.04
25869;BME280;13688;53.154;18.136;2022-10-16T07:40:55;100952.48;;;14.62;97.74
25869;BME280;13688;53.154;18.136;2022-10-16T07:46:14;100965.91;;;14.93;94.56
25869;BME280;13688;53.154;18.136;2022-10-16T07:51:38;100974.90;;;15.12;91.16
25869;BME280;13688;53.154;18.136;2022-10-16T07:57:00;100973.48;;;15.08;90.05
25869;BME280;13688;53.154;18.136;2022-10-16T08:02:24;100982.76;;;15.06;90.08
25869;BME280;13688;53.154;18.136;2022-10-16T08:07:49;100988.59;;;15.11;90.72
25869;BME280;13688;53.154;18.136;2022-10-16T08:13:12;100997.28;;;15.24;90.54
25869;BME280;13688;53.154;18.136;2022-10-16T08:18:34;100991.59;;;15.37;89.62
25869;BME280;13688;53.154;18.136;2022-10-16T08:23:57;100994.44;;;15.45;88.93
25869;BME280;13688;53.154;18.136;2022-10-16T08:29:20;101005.53;;;15.52;88.58
25869;BME280;13688;53.154;18.136;2022-10-16T08:34:42;101013.55;;;15.63;87.98
25869;BME280;13688;53.154;18.136;2022-10-16T08:40:06;101014.41;;;15.73;87.36
25869;BME280;13688;53.154;18.136;2022-10-16T08:46:01;100994.41;;;15.84;86.74
25869;BME280;13688;53.154;18.136;2022-10-16T08:51:32;101008.47;;;16.07;85.72
25869;BME280;13688;53.154;18.136;2022-10-16T08:57:11;101009.70;;;16.22;83.93
25869;BME280;13688;53.154;18.136;2022-10-16T09:02:35;101020.25;;;16.25;83.55
25869;BME280;13688;53.154;18.136;2022-10-16T09:07:59;101018.82;;;16.21;82.45
25869;BME280;13688;53.154;18.136;2022-10-16T09:24:49;101026.03;;;16.40;81.00
25869;BME280;13688;53.154;18.136;2022-10-16T09:30:26;101021.61;;;16.39;81.26
25869;BME280;13688;53.154;18.136;2022-10-16T09:35:51;101027.89;;;16.39;80.93
25869;BME280;13688;53.154;18.136;2022-10-16T09:41:21;101036.45;;;16.44;80.53
25869;BME280;13688;53.154;18.136;2022-10-16T09:46:41;101027.58;;;16.52;79.67
25869;BME280;13688;53.154;18.136;2022-10-16T09:52:12;101036.05;;;16.67;79.51
25869;BME280;13688;53.154;18.136;2022-10-16T09:57:35;101038.84;;;16.84;78.76
25869;BME280;13688;53.154;18.136;2022-10-16T10:03:10;101032.12;;;17.06;77.70
25869;BME280;13688;53.154;18.136;2022-10-16T10:08:38;101033.92;;;17.15;76.65
25869;BME280;13688;53.154;18.136;2022-10-16T10:14:41;101042.33;;;17.40;75.71
25869;BME280;13688;53.154;18.136;2022-10-16T10:20:24;101039.77;;;17.38;74.98
25869;BME280;13688;53.154;18.136;2022-10-16T10:31:45;101045.50;;;17.35;75.72
25869;BME280;13688;53.154;18.136;2022-10-16T10:37:42;101052.59;;;17.28;75.42
25869;BME280;13688;53.154;18.136;2022-10-16T10:43:32;101048.22;;;17.53;75.31
25869;BME280;13688;53.154;18.136;2022-10-16T11:01:13;101053.12;;;18.11;72.57
25869;BME280;13688;53.154;18.136;2022-10-16T11:12:31;101065.02;;;18.10;72.18
25869;BME280;13688;53.154;18.136;2022-10-16T11:18:27;101065.45;;;17.97;72.22
25869;BME280;13688;53.154;18.136;2022-10-16T11:24:06;101076.01;;;18.00;72.61
25869;BME280;13688;53.154;18.136;2022-10-16T11:29:29;101082.16;;;17.85;73.01
25869;BME280;13688;53.154;18.136;2022-10-16T11:35:02;101062.36;;;17.74;73.69
25869;BME280;13688;53.154;18.136;2022-10-16T11:40:33;101067.61;;;17.94;73.41
25869;BME280;13688;53.154;18.136;2022-10-16T11:46:15;101064.27;;;18.00;72.93
25869;BME280;13688;53.154;18.136;2022-10-16T11:51:55;101064.95;;;18.02;72.68
25869;BME280;13688;53.154;18.136;2022-10-16T11:57:23;101073.91;;;17.94;72.24
25869;BME280;13688;53.154;18.136;2022-10-16T12:03:08;101072.86;;;17.87;72.75
25869;BME280;13688;53.154;18.136;2022-10-16T12:08:35;101071.70;;;17.72;73.59
25869;BME280;13688;53.154;18.136;2022-10-16T12:19:40;101065.65;;;18.04;72.49
25869;BME280;13688;53.154;18.136;2022-10-16T12:25:31;101067.61;;;17.94;72.36
25869;BME280;13688;53.154;18.136;2022-10-16T12:31:02;101077.58;;;17.85;72.84
25869;BME280;13688;53.154;18.136;2022-10-16T12:36:34;101086.71;;;17.76;73.05
25869;BME280;13688;53.154;18.136;2022-10-16T12:42:02;101087.16;;;17.71;73.16
25869;BME280;13688;53.154;18.136;2022-10-16T12:47:50;101099.05;;;17.70;73.31
25869;BME280;13688;53.154;18.136;2022-10-16T12:53:25;101089.32;;;17.68;73.54
25869;BME280;13688;53.154;18.136;2022-10-16T12:59:01;101099.19;;;17.69;73.62
25869;BME280;13688;53.154;18.136;2022-10-16T13:16:46;101099.50;;;17.84;73.49
25869;BME280;13688;53.154;18.136;2022-10-16T13:22:48;101104.33;;;17.90;73.25
25869;BME280;13688;53.154;18.136;2022-10-16T13:28:27;101112.39;;;17.99;72.97
25869;BME280;13688;53.154;18.136;2022-10-16T13:33:50;101106.66;;;18.28;72.18
25869;BME280;13688;53.154;18.136;2022-10-16T13:39:23;101113.34;;;18.34;71.32
25869;BME280;13688;53.154;18.136;2022-10-16T13:44:51;101116.83;;;18.52;70.90
25869;BME280;13688;53.154;18.136;2022-10-16T13:50:19;101121.42;;;18.52;70.81
25869;BME280;13688;53.154;18.136;2022-10-16T13:55:42;101118.70;;;18.52;71.04
25869;BME280;13688;53.154;18.136;2022-10-16T14:06:51;101124.15;;;18.52;70.97
25869;BME280;13688;53.154;18.136;2022-10-16T14:12:15;101134.30;;;18.42;70.79
25869;BME280;13688;53.154;18.136;2022-10-16T14:17:43;101142.63;;;18.40;70.93
25869;BME280;13688;53.154;18.136;2022-10-16T14:23:23;101134.80;;;18.37;70.98
25869;BME280;13688;53.154;18.136;2022-10-16T14:28:48;101137.19;;;18.40;71.09
25869;BME280;13688;53.154;18.136;2022-10-16T14:34:38;101150.48;;;18.95;69.98
25869;BME280;13688;53.154;18.136;2022-10-16T14:40:04;101158.84;;;19.44;67.56
25869;BME280;13688;53.154;18.136;2022-10-16T14:45:34;101155.16;;;19.11;67.87
25869;BME280;13688;53.154;18.136;2022-10-16T14:50:57;101164.98;;;18.70;69.46
25869;BME280;13688;53.154;18.136;2022-10-16T14:56:30;101170.57;;;19.36;68.46
25869;BME280;13688;53.154;18.136;2022-10-16T15:02:12;101173.27;;;19.28;66.77
25869;BME280;13688;53.154;18.136;2022-10-16T15:07:35;101179.39;;;19.22;68.08
25869;BME280;13688;53.154;18.136;2022-10-16T15:12:58;101180.08;;;18.90;68.71
25869;BME280;13688;53.154;18.136;2022-10-16T15:18:21;101193.97;;;18.53;70.13
25869;BME280;13688;53.154;18.136;2022-10-16T15:23:43;101190.73;;;18.14;71.94
25869;BME280;13688;53.154;18.136;2022-10-16T15:29:06;101189.83;;;17.87;73.38
25869;BME280;13688;53.154;18.136;2022-10-16T15:34:28;101188.65;;;17.72;74.42
25869;BME280;13688;53.154;18.136;2022-10-16T15:39:51;101191.20;;;17.46;75.55
25869;BME280;13688;53.154;18.136;2022-10-16T15:45:15;101191.83;;;17.12;76.71
25869;BME280;13688;53.154;18.136;2022-10-16T15:50:38;101201.14;;;16.73;78.62
25869;BME280;13688;53.154;18.136;2022-10-16T15:56:04;101211.32;;;16.42;81.61
25869;BME280;13688;53.154;18.136;2022-10-16T16:01:26;101212.35;;;16.12;83.84
25869;BME280;13688;53.154;18.136;2022-10-16T16:06:50;101224.45;;;15.79;85.75
25869;BME280;13688;53.154;18.136;2022-10-16T16:12:13;101215.83;;;15.54;88.61
25869;BME280;13688;53.154;18.136;2022-10-16T16:17:37;101232.25;;;15.22;90.80
25869;BME280;13688;53.154;18.136;2022-10-16T16:22:59;101234.53;;;14.86;94.29
25869;BME280;13688;53.154;18.136;2022-10-16T16:28:22;101243.98;;;14.71;98.66
25869;BME280;13688;53.154;18.136;2022-10-16T16:33:44;101251.38;;;14.48;100.00
25869;BME280;13688;53.154;18.136;2022-10-16T16:39:07;101265.83;;;14.26;100.00
25869;BME280;13688;53.154;18.136;2022-10-16T16:44:30;101271.82;;;14.09;100.00
25869;BME280;13688;53.154;18.136;2022-10-16T16:49:52;101281.95;;;13.85;100.00
25869;BME280;13688;53.154;18.136;2022-10-16T16:55:16;101293.27;;;13.79;100.00
25869;BME280;13688;53.154;18.136;2022-10-16T17:00:48;101296.12;;;13.66;100.00
25869;BME280;13688;53.154;18.136;2022-10-16T17:06:06;101297.59;;;13.59;100.00
25869;BME280;13688;53.154;18.136;2022-10-16T17:11:30;101312.83;;;13.49;100.00
25869;BME280;13688;53.154;18.136;2022-10-16T17:16:54;101314.30;;;13.30;100.00
25869;BME280;13688;53.154;18.136;2022-10-16T17:22:17;101316.11;;;13.18;100.00
25869;BME280;13688;53.154;18.136;2022-10-16T17:27:40;101332.17;;;13.09;100.00
25869;BME280;13688;53.154;18.136;2022-10-16T17:33:02;101335.13;;;13.06;100.00
25869;BME280;13688;53.154;18.136;2022-10-16T17:38:24;101347.38;;;12.99;100.00
25869;BME280;13688;53.154;18.136;2022-10-16T17:43:47;101366.69;;;13.16;100.00
25869;BME280;13688;53.154;18.136;2022-10-16T17:49:10;101381.15;;;13.04;100.00
25869;BME280;13688;53.154;18.136;2022-10-16T17:54:33;101396.80;;;12.88;100.00
25869;BME280;13688;53.154;18.136;2022-10-16T17:59:55;101398.11;;;12.82;100.00
25869;BME280;13688;53.154;18.136;2022-10-16T18:05:19;101399.37;;;12.89;100.00
25869;BME280;13688;53.154;18.136;2022-10-16T18:10:45;101403.79;;;12.90;100.00
25869;BME280;13688;53.154;18.136;2022-10-16T18:16:10;101410.58;;;12.72;100.00
25869;BME280;13688;53.154;18.136;2022-10-16T18:21:33;101417.25;;;12.79;100.00
25869;BME280;13688;53.154;18.136;2022-10-16T18:26:59;101422.92;;;12.87;100.00
25869;BME280;13688;53.154;18.136;2022-10-16T18:32:23;101437.90;;;12.92;100.00
25869;BME280;13688;53.154;18.136;2022-10-16T18:37:45;101435.56;;;12.87;100.00
25869;BME280;13688;53.154;18.136;2022-10-16T18:43:09;101447.50;;;12.72;100.00
25869;BME280;13688;53.154;18.136;2022-10-16T18:48:32;101461.80;;;12.61;100.00
25869;BME280;13688;53.154;18.136;2022-10-16T18:53:58;101473.27;;;12.52;100.00
25869;BME280;13688;53.154;18.136;2022-10-16T18:59:22;101474.13;;;12.52;100.00
25869;BME280;13688;53.154;18.136;2022-10-16T19:04:44;101477.98;;;12.24;100.00
25869;BME280;13688;53.154;18.136;2022-10-16T19:10:09;101487.11;;;11.98;100.00
25869;BME280;13688;53.154;18.136;2022-10-16T19:15:31;101495.41;;;11.82;100.00
25869;BME280;13688;53.154;18.136;2022-10-16T19:21:03;101499.92;;;11.69;100.00
25869;BME280;13688;53.154;18.136;2022-10-16T19:26:32;101508.64;;;11.60;100.00
25869;BME280;13688;53.154;18.136;2022-10-16T19:31:54;101521.43;;;11.43;100.00
25869;BME280;13688;53.154;18.136;2022-10-16T19:37:17;101520.55;;;11.30;100.00
25869;BME280;13688;53.154;18.136;2022-10-16T19:42:39;101530.94;;;11.49;100.00
25869;BME280;13688;53.154;18.136;2022-10-16T19:48:03;101534.05;;;11.56;100.00
25869;BME280;13688;53.154;18.136;2022-10-16T19:53:26;101540.52;;;11.66;100.00
25869;BME280;13688;53.154;18.136;2022-10-16T19:58:50;101539.27;;;11.84;100.00
25869;BME280;13688;53.154;18.136;2022-10-16T20:04:13;101542.39;;;11.78;100.00
25869;BME280;13688;53.154;18.136;2022-10-16T20:09:37;101538.78;;;11.39;100.00
25869;BME280;13688;53.154;18.136;2022-10-16T20:14:59;101544.16;;;11.39;100.00
25869;BME280;13688;53.154;18.136;2022-10-16T20:20:22;101542.03;;;11.17;100.00
25869;BME280;13688;53.154;18.136;2022-10-16T20:25:46;101558.36;;;11.02;100.00
25869;BME280;13688;53.154;18.136;2022-10-16T20:31:13;101571.09;;;10.85;100.00
25869;BME280;13688;53.154;18.136;2022-10-16T20:36:38;101584.97;;;10.65;100.00
25869;BME280;13688;53.154;18.136;2022-10-16T20:42:00;101584.42;;;10.46;100.00
25869;BME280;13688;53.154;18.136;2022-10-16T20:47:23;101595.07;;;10.47;100.00
25869;BME280;13688;53.154;18.136;2022-10-16T20:52:46;101597.84;;;10.31;100.00
25869;BME280;13688;53.154;18.136;2022-10-16T20:58:10;101599.22;;;10.24;100.00
25869;BME280;13688;53.154;18.136;2022-10-16T21:03:32;101618.69;;;10.28;100.00
25869;BME280;13688;53.154;18.136;2022-10-16T21:08:55;101617.77;;;10.13;100.00
25869;BME280;13688;53.154;18.136;2022-10-16T21:14:18;101624.20;;;9.96;100.00
25869;BME280;13688;53.154;18.136;2022-10-16T21:19:41;101634.44;;;9.90;100.00
25869;BME280;13688;53.154;18.136;2022-10-16T21:25:03;101638.75;;;9.92;100.00
25869;BME280;13688;53.154;18.136;2022-10-16T21:30:25;101638.80;;;10.07;100.00
25869;BME280;13688;53.154;18.136;2022-10-16T21:35:48;101639.36;;;9.97;100.00
25869;BME280;13688;53.154;18.136;2022-10-16T21:41:25;101646.81;;;9.92;100.00
25869;BME280;13688;53.154;18.136;2022-10-16T21:46:49;101656.80;;;9.60;100.00
25869;BME280;13688;53.154;18.136;2022-10-16T21:52:11;101660.88;;;9.52;100.00
25869;BME280;13688;53.154;18.136;2022-10-16T21:57:34;101662.45;;;9.56;100.00
25869;BME280;13688;53.154;18.136;2022-10-16T22:02:56;101683.99;;;9.54;100.00
25869;BME280;13688;53.154;18.136;2022-10-16T22:08:19;101691.98;;;9.24;100.00
25869;BME280;13688;53.154;18.136;2022-10-16T22:13:42;101700.06;;;9.08;100.00
25869;BME280;13688;53.154;18.136;2022-10-16T22:19:05;101698.13;;;8.95;100.00
25869;BME280;13688;53.154;18.136;2022-10-16T22:24:28;101688.53;;;9.22;100.00
25869;BME280;13688;53.154;18.136;2022-10-16T22:29:51;101682.02;;;9.26;100.00
25869;BME280;13688;53.154;18.136;2022-10-16T22:35:14;101697.17;;;8.96;100.00
25869;BME280;13688;53.154;18.136;2022-10-16T22:40:40;101707.16;;;8.60;100.00
25869;BME280;13688;53.154;18.136;2022-10-16T22:46:04;101704.70;;;8.56;100.00
25869;BME280;13688;53.154;18.136;2022-10-16T22:51:29;101705.66;;;8.55;100.00
25869;BME280;13688;53.154;18.136;2022-10-16T22:56:51;101716.75;;;8.65;100.00
25869;BME280;13688;53.154;18.136;2022-10-16T23:02:13;101739.98;;;8.81;100.00
25869;BME280;13688;53.154;18.136;2022-10-16T23:07:37;101727.17;;;8.86;100.00
25869;BME280;13688;53.154;18.136;2022-10-16T23:12:59;101734.25;;;9.21;100.00
25869;BME280;13688;53.154;18.136;2022-10-16T23:18:21;101726.26;;;9.03;100.00
25869;BME280;13688;53.154;18.136;2022-10-16T23:23:44;101724.86;;;8.96;100.00
25869;BME280;13688;53.154;18.136;2022-10-16T23:29:08;101734.07;;;9.08;100.00
25869;BME280;13688;53.154;18.136;2022-10-16T23:34:31;101749.00;;;8.96;100.00
25869;BME280;13688;53.154;18.136;2022-10-16T23:39:54;101747.30;;;8.78;100.00
25869;BME280;13688;53.154;18.136;2022-10-16T23:45:16;101749.50;;;8.87;100.00
25869;BME280;13688;53.154;18.136;2022-10-16T23:50:39;101764.59;;;9.05;100.00
25869;BME280;13688;53.154;18.136;2022-10-16T23:56:02;101773.00;;;9.15;100.00
